createdAt,value
2023-03-25T00:01:20.389Z,0.50
2023-03-25T00:03:50.780Z,0.60
2023-03-25T00:06:18.645Z,0.70
2023-03-25T00:08:46.138Z,0.40
2023-03-25T00:11:13.496Z,0.40
2023-03-25T00:13:42.292Z,0.60
2023-03-25T00:16:10.435Z,0.50
2023-03-25T00:18:38.083Z,0.60
2023-03-25T00:21:07.534Z,0.70
2023-03-25T00:23:34.862Z,0.50
2023-03-25T00:26:03.288Z,0.60
2023-03-25T00:28:32.607Z,0.50
2023-03-25T00:31:01.398Z,0.50
2023-03-25T00:33:29.523Z,0.77
2023-03-25T00:36:00.341Z,0.60
2023-03-25T00:38:33.597Z,0.60
2023-03-25T00:41:09.307Z,0.50
2023-03-25T00:43:36.821Z,0.60
2023-03-25T00:46:04.452Z,0.50
2023-03-25T00:48:31.963Z,0.43
2023-03-25T00:50:59.267Z,0.53
2023-03-25T00:53:26.705Z,0.40
2023-03-25T00:55:58.448Z,0.60
2023-03-25T00:58:25.842Z,0.77
2023-03-25T01:00:53.196Z,0.50
2023-03-25T01:03:20.615Z,0.40
2023-03-25T01:05:48.254Z,0.60
2023-03-25T01:08:17.800Z,0.60
2023-03-25T01:10:45.094Z,0.40
2023-03-25T01:13:12.403Z,0.50
2023-03-25T01:15:40.841Z,0.63
2023-03-25T01:18:08.221Z,0.50
2023-03-25T01:20:35.903Z,0.50
2023-03-25T01:23:03.243Z,0.40
2023-03-25T01:25:30.680Z,0.57
2023-03-25T01:27:58.070Z,0.43
2023-03-25T01:30:25.923Z,0.40
2023-03-25T01:32:53.328Z,0.70
2023-03-25T01:35:20.858Z,0.90
2023-03-25T01:37:48.429Z,0.57
2023-03-25T01:40:21.150Z,0.40
2023-03-25T01:42:48.511Z,0.43
2023-03-25T01:45:21.921Z,0.70
2023-03-25T01:47:51.177Z,0.50
2023-03-25T01:50:18.650Z,0.63
2023-03-25T01:52:48.428Z,0.47
2023-03-25T01:55:18.167Z,0.73
2023-03-25T01:57:46.377Z,0.70
2023-03-25T02:00:15.780Z,0.50
2023-03-25T02:02:45.936Z,0.40
2023-03-25T02:05:19.003Z,0.50
2023-03-25T02:07:48.247Z,0.60
2023-03-25T02:10:19.628Z,0.40
2023-03-25T02:12:47.371Z,0.50
2023-03-25T02:15:16.083Z,0.57
2023-03-25T02:17:58.223Z,0.70
2023-03-25T02:20:25.835Z,0.63
2023-03-25T02:23:22.256Z,0.73
2023-03-25T02:25:55.793Z,0.70
2023-03-25T02:28:29.506Z,0.47
2023-03-25T02:31:17.158Z,0.40
2023-03-25T02:34:01.878Z,0.53
2023-03-25T02:36:48.918Z,0.50
2023-03-25T02:39:22.430Z,0.60
2023-03-25T02:42:12.739Z,0.33
2023-03-25T02:44:48.621Z,0.83
2023-03-25T02:47:18.204Z,0.57
2023-03-25T02:49:58.363Z,0.47
2023-03-25T02:52:27.881Z,0.47
2023-03-25T02:55:01.955Z,0.60
2023-03-25T02:57:29.802Z,0.50
2023-03-25T02:59:58.276Z,0.33
2023-03-25T03:02:27.150Z,0.40
2023-03-25T03:04:56.865Z,0.60
2023-03-25T03:07:36.584Z,0.40
2023-03-25T03:10:21.762Z,0.50
2023-03-25T03:12:49.176Z,0.50
2023-03-25T03:15:25.103Z,0.83
2023-03-25T03:17:52.524Z,0.60
2023-03-25T03:20:19.905Z,0.40
2023-03-25T03:23:13.384Z,0.47
2023-03-25T03:26:07.162Z,0.67
2023-03-25T03:28:40.278Z,0.50
2023-03-25T03:31:12.455Z,0.40
2023-03-25T03:33:50.758Z,0.60
2023-03-25T03:36:20.605Z,0.47
2023-03-25T03:38:50.367Z,0.40
2023-03-25T03:41:20.503Z,0.40
2023-03-25T03:43:51.725Z,0.40
2023-03-25T03:46:42.315Z,0.40
2023-03-25T03:49:18.306Z,0.70
2023-03-25T03:51:52.333Z,0.33
2023-03-25T03:54:24.983Z,0.30
2023-03-25T03:56:58.484Z,0.40
2023-03-25T03:59:43.816Z,0.50
2023-03-25T04:02:34.783Z,0.53
2023-03-25T04:05:02.409Z,0.50
2023-03-25T04:07:39.306Z,0.43
2023-03-25T04:10:16.035Z,0.30
2023-03-25T04:12:46.483Z,0.40
2023-03-25T04:15:14.979Z,0.47
2023-03-25T04:17:43.176Z,0.40
2023-03-25T04:20:14.577Z,0.40
2023-03-25T04:22:45.811Z,0.50
2023-03-25T04:25:14.233Z,0.60
2023-03-25T04:27:41.663Z,0.40
2023-03-25T04:30:09.578Z,0.30
2023-03-25T04:32:36.999Z,0.60
2023-03-25T04:35:04.891Z,0.43
2023-03-25T04:37:33.986Z,0.30
2023-03-25T04:40:01.444Z,0.40
2023-03-25T04:42:33.097Z,0.33
2023-03-25T04:45:00.894Z,0.40
2023-03-25T04:47:28.595Z,0.40
2023-03-25T04:49:56.309Z,0.30
2023-03-25T04:52:23.771Z,0.43
2023-03-25T04:54:51.361Z,0.30
2023-03-25T04:57:18.614Z,0.47
2023-03-25T04:59:46.160Z,0.30
2023-03-25T05:02:14.617Z,0.50
2023-03-25T05:04:43.054Z,0.30
2023-03-25T05:07:10.888Z,0.60
2023-03-25T05:09:38.290Z,0.50
2023-03-25T05:12:05.839Z,0.30
2023-03-25T05:14:33.202Z,0.40
2023-03-25T05:17:00.722Z,0.53
2023-03-25T05:19:28.972Z,0.30
2023-03-25T05:21:56.403Z,0.30
2023-03-25T05:24:23.858Z,0.40
2023-03-25T05:26:51.298Z,0.37
2023-03-25T05:29:19.402Z,0.30
2023-03-25T05:31:48.633Z,0.40
2023-03-25T05:34:17.497Z,0.47
2023-03-25T05:36:45.136Z,0.40
2023-03-25T05:39:12.604Z,0.50
2023-03-25T05:41:45.762Z,0.50
2023-03-25T05:44:15.607Z,0.40
2023-03-25T05:46:43.091Z,0.27
2023-03-25T05:49:10.470Z,0.50
2023-03-25T05:51:38.540Z,0.30
2023-03-25T05:54:11.932Z,0.30
2023-03-25T05:56:39.905Z,0.60
2023-03-25T05:59:08.415Z,0.40
2023-03-25T06:01:37.931Z,0.40
2023-03-25T06:04:05.604Z,0.50
2023-03-25T06:06:34.608Z,0.30
2023-03-25T06:09:02.599Z,0.30
2023-03-25T06:11:30.148Z,0.43
2023-03-25T06:13:57.761Z,0.30
2023-03-25T06:16:30.155Z,0.50
2023-03-25T06:19:01.537Z,0.27
2023-03-25T06:21:30.009Z,0.40
2023-03-25T06:23:58.801Z,0.33
2023-03-25T06:26:26.683Z,0.20
2023-03-25T06:28:55.020Z,0.30
2023-03-25T06:31:26.816Z,0.20
2023-03-25T06:33:55.115Z,0.20
2023-03-25T06:36:22.589Z,0.30
2023-03-25T06:38:51.041Z,0.30
2023-03-25T06:41:20.778Z,0.27
2023-03-25T06:43:48.930Z,0.30
2023-03-25T06:46:17.092Z,0.30
2023-03-25T06:48:44.608Z,0.40
2023-03-25T06:51:12.053Z,0.30
2023-03-25T06:53:39.423Z,0.50
2023-03-25T06:56:07.200Z,0.40
2023-03-25T06:58:37.630Z,0.27
2023-03-25T07:01:07.887Z,0.30
2023-03-25T07:03:39.273Z,0.27
2023-03-25T07:06:07.121Z,0.40
2023-03-25T07:08:34.542Z,0.50
2023-03-25T07:11:06.405Z,0.27
2023-03-25T07:13:34.030Z,0.20
2023-03-25T07:16:01.929Z,0.40
2023-03-25T07:18:29.403Z,0.30
2023-03-25T07:20:56.705Z,0.30
2023-03-25T07:23:24.115Z,0.20
2023-03-25T07:25:51.609Z,0.20
2023-03-25T07:28:19.324Z,0.17
2023-03-25T07:30:46.686Z,0.20
2023-03-25T07:33:14.120Z,0.30
2023-03-25T07:35:41.563Z,0.20
2023-03-25T07:38:10.171Z,0.20
2023-03-25T07:40:37.758Z,0.43
2023-03-25T07:43:05.391Z,0.13
2023-03-25T07:45:44.622Z,0.23
2023-03-25T07:48:20.515Z,0.30
2023-03-25T07:50:49.525Z,0.37
2023-03-25T07:53:17.037Z,0.30
2023-03-25T07:55:45.735Z,0.20
2023-03-25T07:58:13.382Z,0.23
2023-03-25T08:00:40.741Z,0.17
2023-03-25T08:03:08.154Z,0.20
2023-03-25T08:05:35.944Z,0.20
2023-03-25T08:08:05.647Z,0.30
2023-03-25T08:10:35.301Z,0.30
2023-03-25T08:13:02.846Z,0.40
2023-03-25T08:15:30.397Z,0.30
2023-03-25T08:17:57.872Z,0.30
2023-03-25T08:20:25.871Z,0.30
2023-03-25T08:22:53.343Z,0.40
2023-03-25T08:25:21.174Z,0.53
2023-03-25T08:27:48.789Z,0.30
2023-03-25T08:30:17.654Z,0.30
2023-03-25T08:32:54.651Z,0.30
2023-03-25T08:35:24.240Z,0.27
2023-03-25T08:37:52.165Z,0.30
2023-03-25T08:40:20.189Z,0.30
2023-03-25T08:42:47.604Z,0.27
2023-03-25T08:45:15.702Z,0.30
2023-03-25T08:47:45.913Z,0.33
2023-03-25T08:50:13.821Z,0.20
2023-03-25T08:52:41.350Z,0.40
2023-03-25T08:55:11.774Z,0.30
2023-03-25T08:57:39.808Z,0.20
2023-03-25T09:00:19.163Z,0.30
2023-03-25T09:02:46.577Z,0.50
2023-03-25T09:05:16.107Z,0.20
2023-03-25T09:07:43.670Z,0.20
2023-03-25T09:10:13.227Z,0.23
2023-03-25T09:12:40.827Z,0.57
2023-03-25T09:15:08.741Z,0.30
2023-03-25T09:17:36.358Z,0.37
2023-03-25T09:20:03.846Z,0.20
2023-03-25T09:22:31.235Z,0.27
2023-03-25T09:24:58.589Z,0.30
2023-03-25T09:27:25.946Z,0.40
2023-03-25T09:29:53.247Z,0.20
2023-03-25T09:32:20.996Z,0.20
2023-03-25T09:34:48.633Z,0.20
2023-03-25T09:37:16.076Z,0.30
2023-03-25T09:39:43.679Z,0.27
2023-03-25T09:42:17.003Z,0.23
2023-03-25T09:45:09.894Z,0.33
2023-03-25T09:47:40.587Z,0.30
2023-03-25T09:50:13.512Z,0.30
2023-03-25T09:53:01.605Z,0.30
2023-03-25T09:55:30.840Z,0.40
2023-03-25T09:58:11.840Z,0.30
2023-03-25T10:00:40.074Z,0.30
2023-03-25T10:03:08.087Z,0.30
2023-03-25T10:05:42.751Z,0.20
2023-03-25T10:08:10.042Z,0.20
2023-03-25T10:10:37.484Z,0.30
2023-03-25T10:13:10.870Z,0.30
2023-03-25T10:15:53.667Z,0.20
2023-03-25T10:18:30.648Z,0.30
2023-03-25T10:21:16.849Z,0.20
2023-03-25T10:24:13.529Z,0.30
2023-03-25T10:26:41.205Z,0.30
2023-03-25T10:29:12.885Z,0.50
2023-03-25T10:31:44.090Z,0.30
2023-03-25T10:34:15.693Z,0.27
2023-03-25T10:36:49.513Z,0.33
2023-03-25T10:39:21.406Z,0.40
2023-03-25T10:41:53.136Z,0.57
2023-03-25T10:44:22.631Z,0.27
2023-03-25T10:46:59.207Z,0.40
2023-03-25T10:49:30.880Z,0.30
2023-03-25T10:51:59.651Z,0.30
2023-03-25T10:54:32.210Z,0.20
2023-03-25T10:57:01.175Z,1.03
2023-03-25T10:59:31.758Z,0.20
2023-03-25T11:02:00.475Z,0.30
2023-03-25T11:04:35.451Z,0.20
2023-03-25T11:07:05.958Z,0.30
2023-03-25T11:09:36.882Z,0.30
2023-03-25T11:12:06.759Z,0.10
2023-03-25T11:14:38.573Z,0.20
2023-03-25T11:17:09.626Z,0.20
2023-03-25T11:19:45.841Z,0.30
2023-03-25T11:22:31.769Z,0.87
2023-03-25T11:25:01.720Z,0.20
2023-03-25T11:27:30.531Z,0.17
2023-03-25T11:30:03.148Z,0.40
2023-03-25T11:32:34.867Z,0.20
2023-03-25T11:35:03.807Z,0.33
2023-03-25T11:37:32.486Z,0.23
2023-03-25T11:40:05.093Z,0.20
2023-03-25T11:42:55.542Z,0.23
2023-03-25T11:45:23.112Z,0.23
2023-03-25T11:47:51.073Z,0.40
2023-03-25T11:50:26.215Z,0.40
2023-03-25T11:52:58.990Z,0.43
2023-03-25T11:55:33.687Z,0.40
2023-03-25T11:58:02.281Z,0.20
2023-03-25T12:00:36.032Z,0.30
2023-03-25T12:03:13.348Z,0.20
2023-03-25T12:05:41.980Z,0.27
2023-03-25T12:08:16.526Z,0.30
2023-03-25T12:10:46.962Z,0.20
2023-03-25T12:13:23.672Z,0.27
2023-03-25T12:16:07.526Z,0.30
2023-03-25T12:18:41.956Z,0.30
2023-03-25T12:21:15.327Z,0.37
2023-03-25T12:23:46.149Z,0.10
2023-03-25T12:26:28.843Z,0.20
2023-03-25T12:29:06.447Z,0.20
2023-03-25T12:31:33.943Z,0.30
2023-03-25T12:34:01.249Z,0.27
2023-03-25T12:36:43.809Z,0.30
2023-03-25T12:39:17.594Z,0.20
2023-03-25T12:41:50.683Z,0.30
2023-03-25T12:44:33.286Z,0.20
2023-03-25T12:47:19.361Z,0.30
2023-03-25T12:49:56.047Z,0.30
2023-03-25T12:52:26.469Z,0.20
2023-03-25T12:55:12.564Z,0.20
2023-03-25T12:57:45.686Z,0.30
2023-03-25T13:00:21.854Z,0.20
2023-03-25T13:02:53.046Z,0.30
2023-03-25T13:05:31.442Z,0.30
2023-03-25T13:08:06.005Z,0.37
2023-03-25T13:10:37.128Z,0.30
2023-03-25T13:13:09.295Z,0.37
2023-03-25T13:15:40.130Z,0.37
2023-03-25T13:18:13.730Z,0.20
2023-03-25T13:20:43.421Z,0.20
2023-03-25T13:23:14.244Z,0.20
2023-03-25T13:25:47.572Z,0.30
2023-03-25T13:28:17.735Z,0.20
2023-03-25T13:30:47.406Z,0.10
2023-03-25T13:33:25.333Z,0.20
2023-03-25T13:36:08.041Z,0.20
2023-03-25T13:38:44.159Z,0.80
2023-03-25T13:41:13.557Z,0.10
2023-03-25T13:43:59.564Z,0.30
2023-03-25T13:46:30.929Z,0.20
2023-03-25T13:49:13.170Z,0.10
2023-03-25T13:51:40.485Z,0.20
2023-03-25T13:54:16.311Z,0.27
2023-03-25T13:56:43.708Z,0.20
2023-03-25T13:59:20.508Z,0.27
2023-03-25T14:01:50.919Z,0.40
2023-03-25T14:04:37.867Z,0.30
2023-03-25T14:07:05.231Z,0.30
2023-03-25T14:09:42.530Z,0.20
2023-03-25T14:12:24.004Z,0.20
2023-03-25T14:14:58.359Z,0.20
2023-03-25T14:17:26.997Z,0.20
2023-03-25T14:19:55.607Z,0.20
2023-03-25T14:22:24.725Z,0.30
2023-03-25T14:24:53.738Z,0.20
2023-03-25T14:27:30.241Z,0.20
2023-03-25T14:30:00.892Z,0.10
2023-03-25T14:32:33.943Z,0.20
2023-03-25T14:35:19.778Z,0.20
2023-03-25T14:37:48.690Z,0.20
2023-03-25T14:40:34.471Z,0.20
2023-03-25T14:43:01.951Z,0.17
2023-03-25T14:45:37.022Z,0.20
2023-03-25T14:48:23.051Z,0.63
2023-03-25T14:51:08.670Z,0.17
2023-03-25T14:53:36.902Z,0.20
2023-03-25T14:56:07.592Z,0.10
2023-03-25T14:58:38.206Z,0.20
2023-03-25T15:01:07.494Z,0.30
2023-03-25T15:03:36.489Z,0.10
2023-03-25T15:06:04.528Z,0.20
2023-03-25T15:08:35.563Z,0.23
2023-03-25T15:11:10.486Z,0.10
2023-03-25T15:13:43.224Z,0.10
2023-03-25T15:16:39.694Z,0.33
2023-03-25T15:19:08.368Z,0.20
2023-03-25T15:21:55.723Z,0.30
2023-03-25T15:24:33.464Z,0.10
2023-03-25T15:27:30.012Z,0.10
2023-03-25T15:30:32.964Z,0.13
2023-03-25T15:33:03.347Z,0.40
2023-03-25T15:35:48.615Z,0.10
2023-03-25T15:38:39.301Z,0.20
2023-03-25T15:41:13.097Z,0.37
2023-03-25T15:43:50.195Z,0.23
2023-03-25T15:46:42.441Z,0.10
2023-03-25T15:49:28.281Z,0.10
2023-03-25T15:52:02.761Z,0.20
2023-03-25T15:55:08.453Z,0.10
2023-03-25T15:57:36.203Z,0.10
2023-03-25T16:00:08.967Z,0.20
2023-03-25T16:02:46.621Z,0.20
2023-03-25T16:05:15.532Z,0.20
2023-03-25T16:07:43.485Z,0.33
2023-03-25T16:10:19.401Z,0.20
2023-03-25T16:12:48.267Z,0.40
2023-03-25T16:15:16.931Z,0.13
2023-03-25T16:17:45.339Z,0.30
2023-03-25T16:20:21.182Z,0.27
2023-03-25T16:22:53.795Z,0.20
2023-03-25T16:25:27.167Z,0.10
2023-03-25T16:27:58.527Z,0.20
2023-03-25T16:30:29.188Z,0.30
2023-03-25T16:33:11.350Z,0.20
2023-03-25T16:35:43.277Z,0.30
2023-03-25T16:38:17.762Z,0.30
2023-03-25T16:40:47.078Z,0.23
2023-03-25T16:43:19.804Z,0.40
2023-03-25T16:45:48.110Z,0.30
2023-03-25T16:48:29.049Z,0.20
2023-03-25T16:50:58.121Z,0.67
2023-03-25T16:53:26.120Z,0.17
2023-03-25T16:55:59.576Z,0.20
2023-03-25T16:58:28.547Z,0.30
2023-03-25T17:00:56.918Z,0.20
2023-03-25T17:03:39.627Z,0.30
2023-03-25T17:06:19.685Z,0.30
2023-03-25T17:08:51.605Z,0.40
2023-03-25T17:11:18.964Z,0.30
2023-03-25T17:13:52.386Z,0.30
2023-03-25T17:16:20.988Z,0.30
2023-03-25T17:18:49.260Z,0.50
2023-03-25T17:21:26.802Z,0.30
2023-03-25T17:23:57.882Z,0.20
2023-03-25T17:26:27.200Z,0.37
2023-03-25T17:28:54.636Z,0.30
2023-03-25T17:31:25.273Z,0.40
2023-03-25T17:33:54.524Z,0.40
2023-03-25T17:36:22.207Z,0.30
2023-03-25T17:38:53.563Z,0.40
2023-03-25T17:41:21.874Z,0.40
2023-03-25T17:43:54.279Z,0.60
2023-03-25T17:46:23.175Z,0.40
2023-03-25T17:48:53.533Z,0.40
2023-03-25T17:51:21.774Z,0.43
2023-03-25T17:53:49.550Z,0.33
2023-03-25T17:56:19.002Z,0.40
2023-03-25T17:58:46.329Z,0.40
2023-03-25T18:01:14.670Z,0.40
2023-03-25T18:03:42.320Z,1.13
2023-03-25T18:06:10.091Z,0.80
2023-03-25T18:08:37.760Z,0.47
2023-03-25T18:11:06.840Z,0.40
2023-03-25T18:13:34.221Z,1.37
2023-03-25T18:16:02.198Z,1.50
2023-03-25T18:18:29.660Z,1.20
2023-03-25T18:20:57.281Z,1.00
2023-03-25T18:23:24.710Z,0.50
2023-03-25T18:25:52.801Z,0.80
2023-03-25T18:28:20.401Z,0.50
2023-03-25T18:30:51.291Z,0.50
2023-03-25T18:33:19.392Z,0.40
2023-03-25T18:35:49.924Z,0.40
2023-03-25T18:38:22.382Z,0.47
2023-03-25T18:40:49.983Z,0.50
2023-03-25T18:43:17.678Z,0.90
2023-03-25T18:45:45.942Z,1.73
2023-03-25T18:48:20.895Z,1.07
2023-03-25T18:51:06.806Z,0.67
2023-03-25T18:53:34.693Z,0.53
2023-03-25T18:56:04.204Z,0.80
2023-03-25T18:58:33.168Z,0.80
2023-03-25T19:01:01.451Z,1.20
2023-03-25T19:03:38.823Z,0.80
2023-03-25T19:06:08.710Z,0.60
2023-03-25T19:08:37.243Z,0.70
2023-03-25T19:11:19.059Z,0.80
2023-03-25T19:13:48.288Z,1.23
2023-03-25T19:16:15.798Z,0.80
2023-03-25T19:18:47.616Z,0.70
2023-03-25T19:21:16.310Z,1.00
2023-03-25T19:23:44.006Z,0.90
2023-03-25T19:26:12.384Z,0.50
2023-03-25T19:28:40.003Z,0.80
2023-03-25T19:31:07.582Z,0.50
2023-03-25T19:33:35.001Z,0.80
2023-03-25T19:36:04.535Z,0.70
2023-03-25T19:38:33.236Z,0.67
2023-03-25T19:41:05.325Z,0.50
2023-03-25T19:43:33.109Z,0.90
2023-03-25T19:46:00.992Z,0.77
2023-03-25T19:48:29.996Z,0.63
2023-03-25T19:50:58.613Z,1.10
2023-03-25T19:53:26.816Z,1.33
2023-03-25T19:55:55.245Z,1.30
2023-03-25T19:58:23.266Z,0.87
2023-03-25T20:00:51.672Z,0.60
2023-03-25T20:03:22.631Z,0.90
2023-03-25T20:05:51.555Z,0.80
2023-03-25T20:08:19.085Z,0.60
2023-03-25T20:10:46.324Z,0.60
2023-03-25T20:13:13.700Z,0.67
2023-03-25T20:15:41.315Z,0.77
2023-03-25T20:18:08.766Z,0.83
2023-03-25T20:20:36.218Z,1.10
2023-03-25T20:23:03.527Z,1.10
2023-03-25T20:25:30.898Z,0.77
2023-03-25T20:27:58.283Z,0.90
2023-03-25T20:30:25.739Z,0.80
2023-03-25T20:32:53.048Z,0.70
2023-03-25T20:35:21.248Z,0.83
2023-03-25T20:37:49.170Z,0.80
2023-03-25T20:40:17.629Z,0.73
2023-03-25T20:42:47.375Z,0.60
2023-03-25T20:45:16.038Z,0.60
2023-03-25T20:47:43.770Z,0.80
2023-03-25T20:50:13.117Z,0.80
2023-03-25T20:52:41.017Z,3.23
2023-03-25T20:55:10.154Z,2.37
2023-03-25T20:57:37.765Z,1.57
2023-03-25T21:00:05.752Z,1.63
2023-03-25T21:02:33.272Z,1.27
2023-03-25T21:05:02.718Z,0.70
2023-03-25T21:07:32.076Z,0.70
2023-03-25T21:09:59.813Z,0.80
2023-03-25T21:12:40.593Z,0.80
2023-03-25T21:15:11.449Z,0.60
2023-03-25T21:17:38.895Z,0.63
2023-03-25T21:20:07.652Z,0.57
2023-03-25T21:22:43.267Z,0.50
2023-03-25T21:25:16.904Z,0.53
2023-03-25T21:27:45.521Z,0.50
2023-03-25T21:30:13.547Z,0.50
2023-03-25T21:32:41.524Z,0.40
2023-03-25T21:35:09.837Z,0.60
2023-03-25T21:37:39.379Z,0.43
2023-03-25T21:40:10.478Z,0.50
2023-03-25T21:42:38.852Z,0.40
2023-03-25T21:45:08.003Z,0.40
2023-03-25T21:47:36.296Z,0.60
2023-03-25T21:50:09.901Z,0.70
2023-03-25T21:52:38.072Z,0.70
2023-03-25T21:55:05.748Z,0.40
2023-03-25T21:57:38.131Z,0.53
2023-03-25T22:00:08.266Z,0.60
2023-03-25T22:02:35.801Z,0.80
2023-03-25T22:05:03.509Z,0.60
2023-03-25T22:07:31.754Z,0.70
2023-03-25T22:09:59.239Z,0.80
2023-03-25T22:12:26.707Z,0.60
2023-03-25T22:14:54.109Z,0.83
2023-03-25T22:17:21.747Z,0.70
2023-03-25T22:19:49.200Z,0.47
2023-03-25T22:22:19.305Z,0.90
2023-03-25T22:24:47.350Z,0.97
2023-03-25T22:27:14.918Z,0.67
2023-03-25T22:29:43.057Z,0.60
2023-03-25T22:32:10.810Z,0.70
2023-03-25T22:34:39.331Z,1.60
2023-03-25T22:37:07.210Z,1.00
2023-03-25T22:39:34.667Z,0.60
2023-03-25T22:42:02.032Z,0.53
2023-03-25T22:44:29.643Z,0.50
2023-03-25T22:46:57.199Z,0.67
2023-03-25T22:49:24.675Z,0.50
2023-03-25T22:51:52.668Z,0.60
2023-03-25T22:54:20.081Z,0.50
2023-03-25T22:56:47.649Z,0.47
2023-03-25T22:59:15.612Z,0.60
2023-03-25T23:01:43.321Z,0.60
2023-03-25T23:04:11.076Z,0.70
2023-03-25T23:06:38.838Z,0.60
2023-03-25T23:09:08.557Z,0.50
2023-03-25T23:11:36.931Z,0.50
2023-03-25T23:14:12.169Z,0.60
2023-03-25T23:16:42.075Z,0.33
2023-03-25T23:19:10.251Z,0.60
2023-03-25T23:21:38.513Z,0.57
2023-03-25T23:24:08.966Z,0.90
2023-03-25T23:26:39.186Z,0.60
2023-03-25T23:29:09.194Z,0.60
2023-03-25T23:31:37.702Z,0.33
2023-03-25T23:34:06.965Z,0.70
2023-03-25T23:36:36.613Z,0.83
2023-03-25T23:39:06.999Z,0.80
2023-03-25T23:41:34.977Z,1.37
2023-03-25T23:44:02.565Z,2.20
2023-03-25T23:46:30.567Z,3.37
2023-03-25T23:49:02.625Z,2.57
2023-03-25T23:51:33.175Z,1.20
2023-03-25T23:54:01.334Z,0.70
2023-03-25T23:56:29.281Z,0.83
2023-03-25T23:58:56.782Z,0.50
